Time;durP1;ratioP1;P1;durP2;ratioP2;P2;SDS_P1;SDS_P2;PMS_P1;PMS_P2;Temp;Humidity;BMP_temperature;BMP_pressure;BME280_temperature;BME280_humidity;BME280_pressure;Samples;Min_cycle;Max_cycle;Signal;HPM_P1;HPM_P2
2024/03/24 00:00:34;;;;;;;1.27;0.83;;;;;;;;;;5095808;28;20488;-80
2024/03/24 00:03:00;;;;;;;1.65;0.73;;;;;;;;;;5096792;28;20406;-80
2024/03/24 00:05:26;;;;;;;1.30;0.80;;;;;;;;;;5096121;28;20370;-80
2024/03/24 00:07:52;;;;;;;2.50;0.90;;;;;;;;;;5095866;28;20844;-80
2024/03/24 00:10:18;;;;;;;1.63;0.90;;;;;;;;;;5095924;28;20389;-80
2024/03/24 00:12:46;;;;;;;1.67;0.90;;;;;;;;;;5096110;28;20374;-80
2024/03/24 00:15:12;;;;;;;1.10;0.60;;;;;;;;;;5096563;28;20382;-80
2024/03/24 00:17:38;;;;;;;1.70;0.87;;;;;;;;;;5095169;28;20547;-80
2024/03/24 00:20:04;;;;;;;1.95;0.90;;;;;;;;;;5096400;28;20836;-80
2024/03/24 00:22:31;;;;;;;1.80;0.90;;;;;;;;;;5077883;28;20374;-80
2024/03/24 00:24:57;;;;;;;2.10;0.98;;;;;;;;;;5096303;28;20378;-79
2024/03/24 00:27:24;;;;;;;1.90;0.70;;;;;;;;;;5096075;28;20404;-80
2024/03/24 00:29:50;;;;;;;3.28;0.90;;;;;;;;;;5096031;28;20382;-80
2024/03/24 00:32:16;;;;;;;1.63;0.90;;;;;;;;;;5095290;28;20424;-80
2024/03/24 00:34:42;;;;;;;2.38;1.10;;;;;;;;;;5095525;28;20397;-80
2024/03/24 00:37:09;;;;;;;5.50;1.10;;;;;;;;;;5095240;28;20677;-80
2024/03/24 00:39:35;;;;;;;2.47;0.80;;;;;;;;;;5095429;28;20829;-80
2024/03/24 00:42:01;;;;;;;2.30;1.00;;;;;;;;;;5095305;28;20465;-80
2024/03/24 00:44:28;;;;;;;3.63;1.23;;;;;;;;;;5095680;28;20374;-80
2024/03/24 00:46:54;;;;;;;2.53;1.10;;;;;;;;;;5095462;28;20431;-82
2024/03/24 00:49:20;;;;;;;3.47;1.08;;;;;;;;;;5096055;28;20764;-80
2024/03/24 00:51:46;;;;;;;3.13;1.00;;;;;;;;;;5095670;28;20413;-80
2024/03/24 00:54:11;;;;;;;2.90;1.10;;;;;;;;;;5093669;28;20432;-80
2024/03/24 00:56:37;;;;;;;1.98;1.05;;;;;;;;;;5095576;28;20883;-80
2024/03/24 00:59:03;;;;;;;3.90;1.20;;;;;;;;;;5095046;28;20469;-80
2024/03/24 01:01:29;;;;;;;2.28;1.20;;;;;;;;;;5095508;28;20370;-80
2024/03/24 01:03:55;;;;;;;2.53;1.10;;;;;;;;;;5095674;28;20380;-80
2024/03/24 01:06:21;;;;;;;3.13;1.35;;;;;;;;;;5095563;28;20854;-80
2024/03/24 01:08:48;;;;;;;1.77;0.80;;;;;;;;;;5095130;28;20397;-80
2024/03/24 01:11:14;;;;;;;2.03;1.05;;;;;;;;;;5095030;28;20385;-80
2024/03/24 01:13:40;;;;;;;3.78;1.15;;;;;;;;;;5095261;28;20393;-80
2024/03/24 01:16:06;;;;;;;2.45;1.10;;;;;;;;;;5095038;28;20409;-80
2024/03/24 01:18:32;;;;;;;3.05;1.08;;;;;;;;;;5094898;28;20393;-80
2024/03/24 01:20:58;;;;;;;1.90;1.10;;;;;;;;;;5094566;28;20374;-80
2024/03/24 01:23:24;;;;;;;3.60;1.20;;;;;;;;;;5095026;28;20397;-80
2024/03/24 01:25:50;;;;;;;2.30;1.10;;;;;;;;;;5095485;28;20386;-80
2024/03/24 01:28:16;;;;;;;2.28;1.02;;;;;;;;;;5094616;28;20482;-80
2024/03/24 01:30:42;;;;;;;1.93;1.07;;;;;;;;;;5095301;28;20390;-80
2024/03/24 01:33:08;;;;;;;1.95;1.05;;;;;;;;;;5094876;28;20798;-80
2024/03/24 01:35:34;;;;;;;1.00;0.85;;;;;;;;;;5094806;28;20520;-79
2024/03/24 01:38:00;;;;;;;1.83;0.82;;;;;;;;;;5095029;28;20397;-80
2024/03/24 01:40:26;;;;;;;1.85;0.88;;;;;;;;;;5076789;28;20728;-80
2024/03/24 01:42:52;;;;;;;2.50;1.00;;;;;;;;;;5095027;28;20548;-80
2024/03/24 01:45:18;;;;;;;1.50;1.00;;;;;;;;;;5094500;28;20386;-80
2024/03/24 01:47:44;;;;;;;1.67;0.80;;;;;;;;;;5095108;28;20875;-80
2024/03/24 01:50:12;;;;;;;1.52;0.80;;;;;;;;;;5095383;28;20755;-80
2024/03/24 01:52:38;;;;;;;1.75;1.08;;;;;;;;;;5094545;28;20382;-80
2024/03/24 01:55:04;;;;;;;3.20;0.90;;;;;;;;;;5094959;28;20945;-80
2024/03/24 01:57:32;;;;;;;1.52;0.90;;;;;;;;;;5094188;28;20812;-80
2024/03/24 01:59:58;;;;;;;2.65;1.02;;;;;;;;;;5094483;28;20381;-80
2024/03/24 02:02:24;;;;;;;1.50;1.00;;;;;;;;;;5092717;28;20391;-80
2024/03/24 02:04:50;;;;;;;1.92;1.15;;;;;;;;;;5094782;28;20374;-80
2024/03/24 02:07:16;;;;;;;1.10;1.00;;;;;;;;;;5095024;28;20389;-80
2024/03/24 02:09:43;;;;;;;1.45;0.93;;;;;;;;;;5094716;28;20879;-80
2024/03/24 02:12:09;;;;;;;2.13;0.85;;;;;;;;;;5095027;28;20512;-80
2024/03/24 02:14:35;;;;;;;1.42;0.93;;;;;;;;;;5109454;28;20407;-80
2024/03/24 02:17:01;;;;;;;2.33;1.20;;;;;;;;;;5118563;28;20465;-80
2024/03/24 02:19:27;;;;;;;2.78;0.90;;;;;;;;;;5118647;28;20461;-80
2024/03/24 02:21:53;;;;;;;2.92;1.20;;;;;;;;;;5118830;28;20381;-80
2024/03/24 02:24:19;;;;;;;2.13;1.10;;;;;;;;;;5117893;28;20368;-80
2024/03/24 02:26:45;;;;;;;2.97;1.20;;;;;;;;;;5098159;28;20762;-80
2024/03/24 02:29:14;;;;;;;2.38;1.00;;;;;;;;;;5098223;28;20883;-80
2024/03/24 02:31:41;;;;;;;1.40;1.03;;;;;;;;;;5116829;28;21157;-80
2024/03/24 02:34:07;;;;;;;2.60;1.10;;;;;;;;;;5118570;28;20734;-80
2024/03/24 02:36:33;;;;;;;2.90;1.10;;;;;;;;;;5100575;28;20418;-80
2024/03/24 02:38:59;;;;;;;3.10;1.15;;;;;;;;;;5097763;28;20382;-80
2024/03/24 02:41:25;;;;;;;2.38;1.33;;;;;;;;;;5098476;28;20449;-80
2024/03/24 02:43:51;;;;;;;3.60;1.10;;;;;;;;;;5097958;28;20452;-80
2024/03/24 02:46:17;;;;;;;3.53;1.30;;;;;;;;;;5098525;28;20382;-80
2024/03/24 02:48:43;;;;;;;2.92;1.20;;;;;;;;;;5116559;28;20403;-80
2024/03/24 02:51:09;;;;;;;2.07;1.13;;;;;;;;;;5117840;28;20407;-82
2024/03/24 02:53:35;;;;;;;2.05;1.20;;;;;;;;;;5115529;28;20390;-82
2024/03/24 02:56:01;;;;;;;2.30;1.37;;;;;;;;;;5097370;28;20432;-80
2024/03/24 02:58:27;;;;;;;2.65;1.38;;;;;;;;;;5096979;28;20851;-80
2024/03/24 03:00:53;;;;;;;2.67;1.17;;;;;;;;;;5097872;28;20377;-80
2024/03/24 03:03:19;;;;;;;2.72;1.10;;;;;;;;;;5097500;28;20436;-80
2024/03/24 03:05:46;;;;;;;2.05;1.30;;;;;;;;;;5111991;28;20434;-80
2024/03/24 03:08:12;;;;;;;3.60;1.43;;;;;;;;;;5097461;28;20397;-80
2024/03/24 03:10:38;;;;;;;2.88;1.45;;;;;;;;;;5097422;28;20386;-80
2024/03/24 03:13:04;;;;;;;2.40;1.45;;;;;;;;;;5106549;28;20475;-80
2024/03/24 03:15:31;;;;;;;2.25;1.40;;;;;;;;;;5100119;28;20389;-80
2024/03/24 03:17:57;;;;;;;4.72;1.67;;;;;;;;;;5097313;28;20482;-80
2024/03/24 03:20:23;;;;;;;3.50;1.50;;;;;;;;;;5097089;28;20410;-80
2024/03/24 03:22:49;;;;;;;3.03;1.50;;;;;;;;;;5115994;28;20372;-80
2024/03/24 03:25:15;;;;;;;2.70;1.20;;;;;;;;;;5105676;28;20377;-80
2024/03/24 03:27:41;;;;;;;2.47;1.38;;;;;;;;;;5097180;28;20389;-80
2024/03/24 03:30:07;;;;;;;5.55;1.30;;;;;;;;;;5097591;28;20963;-80
2024/03/24 03:32:33;;;;;;;3.40;1.40;;;;;;;;;;5096430;28;20892;-80
2024/03/24 03:34:59;;;;;;;1.90;1.20;;;;;;;;;;5097341;28;20862;-80
2024/03/24 03:37:26;;;;;;;2.67;1.20;;;;;;;;;;5096634;28;20410;-80
2024/03/24 03:39:52;;;;;;;2.60;1.25;;;;;;;;;;5097243;28;20382;-80
2024/03/24 03:42:19;;;;;;;2.65;1.35;;;;;;;;;;5097167;28;20453;-80
2024/03/24 03:44:46;;;;;;;2.60;1.23;;;;;;;;;;5096417;28;20386;-80
2024/03/24 03:47:14;;;;;;;2.03;1.15;;;;;;;;;;5096470;28;20447;-80
2024/03/24 03:49:40;;;;;;;1.20;1.10;;;;;;;;;;5096474;28;20370;-80
2024/03/24 03:52:06;;;;;;;1.65;1.10;;;;;;;;;;5097103;28;20370;-80
2024/03/24 03:54:32;;;;;;;3.00;1.08;;;;;;;;;;5096415;28;20378;-80
2024/03/24 03:56:58;;;;;;;1.80;1.10;;;;;;;;;;5096958;28;20402;-80
2024/03/24 03:59:24;;;;;;;1.55;1.10;;;;;;;;;;5096563;28;20393;-80
2024/03/24 04:01:50;;;;;;;1.70;1.10;;;;;;;;;;5096903;28;20453;-80
2024/03/24 04:04:16;;;;;;;2.03;1.00;;;;;;;;;;5096655;28;20427;-82
2024/03/24 04:06:42;;;;;;;1.98;1.02;;;;;;;;;;5096414;28;20373;-80
2024/03/24 04:09:12;;;;;;;1.65;0.90;;;;;;;;;;5096687;28;20461;-80
2024/03/24 04:11:38;;;;;;;0.98;0.90;;;;;;;;;;5096207;28;20452;-80
2024/03/24 04:14:05;;;;;;;1.38;0.80;;;;;;;;;;5096012;28;20899;-80
2024/03/24 04:16:31;;;;;;;0.93;0.80;;;;;;;;;;5096042;28;20409;-80
2024/03/24 04:18:57;;;;;;;1.15;0.80;;;;;;;;;;5096031;28;20378;-80
2024/03/24 04:21:23;;;;;;;1.13;0.80;;;;;;;;;;5103185;28;20376;-80
2024/03/24 04:23:51;;;;;;;1.27;0.70;;;;;;;;;;5104045;28;20374;-80
2024/03/24 04:26:17;;;;;;;0.80;0.70;;;;;;;;;;5094552;28;20420;-80
2024/03/24 04:28:43;;;;;;;0.80;0.80;;;;;;;;;;5095792;28;20390;-80
2024/03/24 04:31:09;;;;;;;1.30;0.80;;;;;;;;;;5095437;28;20441;-80
2024/03/24 04:33:35;;;;;;;1.23;0.60;;;;;;;;;;5096186;28;20400;-82
2024/03/24 04:36:02;;;;;;;0.80;0.70;;;;;;;;;;5095342;28;20454;-80
2024/03/24 04:38:28;;;;;;;0.95;0.70;;;;;;;;;;5095826;28;20370;-80
2024/03/24 04:40:54;;;;;;;0.63;0.60;;;;;;;;;;5096153;28;20839;-80
2024/03/24 04:43:20;;;;;;;1.15;0.68;;;;;;;;;;5095974;28;20381;-80
2024/03/24 04:45:46;;;;;;;0.90;0.70;;;;;;;;;;5096171;28;20427;-80
2024/03/24 04:48:12;;;;;;;1.10;0.63;;;;;;;;;;5099184;28;20400;-80
2024/03/24 04:50:38;;;;;;;0.60;0.60;;;;;;;;;;5106467;28;20878;-80
2024/03/24 04:53:06;;;;;;;0.80;0.65;;;;;;;;;;5095594;28;20378;-80
2024/03/24 04:55:32;;;;;;;0.90;0.50;;;;;;;;;;5095183;28;20374;-80
2024/03/24 04:57:58;;;;;;;0.70;0.70;;;;;;;;;;5095318;28;20450;-80
2024/03/24 05:00:25;;;;;;;0.77;0.70;;;;;;;;;;5095250;28;20420;-80
2024/03/24 05:02:51;;;;;;;1.00;0.60;;;;;;;;;;5095357;28;20415;-80
2024/03/24 05:05:17;;;;;;;1.30;0.80;;;;;;;;;;5094676;28;20898;-80
2024/03/24 05:07:43;;;;;;;0.88;0.80;;;;;;;;;;5090614;28;20383;-80
2024/03/24 05:10:10;;;;;;;0.60;0.60;;;;;;;;;;5090887;28;20751;-80
2024/03/24 05:12:36;;;;;;;0.80;0.70;;;;;;;;;;5095948;28;20388;-81
2024/03/24 05:15:04;;;;;;;0.95;0.73;;;;;;;;;;5096023;28;20455;-81
2024/03/24 05:17:30;;;;;;;0.80;0.80;;;;;;;;;;5095418;28;20433;-80
2024/03/24 05:19:56;;;;;;;1.52;1.00;;;;;;;;;;5095152;28;20811;-80
2024/03/24 05:22:22;;;;;;;0.93;0.85;;;;;;;;;;5109483;28;20459;-80
2024/03/24 05:24:48;;;;;;;1.00;0.70;;;;;;;;;;5095106;28;20817;-80
2024/03/24 05:27:18;;;;;;;1.13;0.88;;;;;;;;;;5095543;28;20461;-81
2024/03/24 05:29:44;;;;;;;1.42;1.10;;;;;;;;;;5095185;28;20373;-80
2024/03/24 05:32:11;;;;;;;1.37;0.90;;;;;;;;;;5094784;28;20508;-80
2024/03/24 05:34:37;;;;;;;1.23;0.90;;;;;;;;;;5095070;28;20427;-80
2024/03/24 05:37:03;;;;;;;1.23;0.93;;;;;;;;;;5093454;28;20913;-80
2024/03/24 05:39:29;;;;;;;1.15;0.90;;;;;;;;;;5095083;28;20393;-80
2024/03/24 05:41:55;;;;;;;1.30;1.00;;;;;;;;;;5095232;28;20374;-80
2024/03/24 05:44:21;;;;;;;1.80;0.88;;;;;;;;;;5095267;28;20427;-81
2024/03/24 05:46:48;;;;;;;1.83;0.95;;;;;;;;;;5095119;28;20743;-80
2024/03/24 05:49:14;;;;;;;2.03;0.77;;;;;;;;;;5098446;28;20763;-80
2024/03/24 05:51:40;;;;;;;1.50;0.90;;;;;;;;;;5099609;28;20374;-80
2024/03/24 05:54:07;;;;;;;1.10;0.70;;;;;;;;;;5099579;28;20385;-80
2024/03/24 05:56:33;;;;;;;0.63;0.63;;;;;;;;;;5099419;28;20912;-80
2024/03/24 05:58:59;;;;;;;0.70;0.50;;;;;;;;;;5099660;28;20378;-80
2024/03/24 06:01:26;;;;;;;0.50;0.50;;;;;;;;;;5098819;28;20370;-80
2024/03/24 06:03:52;;;;;;;0.90;0.40;;;;;;;;;;5099055;28;20874;-81
2024/03/24 06:06:19;;;;;;;1.00;0.40;;;;;;;;;;5098426;28;20852;-80
2024/03/24 06:08:45;;;;;;;1.00;0.70;;;;;;;;;;5099296;28;20380;-81
2024/03/24 06:11:11;;;;;;;0.93;0.60;;;;;;;;;;5099272;28;20499;-80
2024/03/24 06:13:37;;;;;;;1.30;0.70;;;;;;;;;;5098880;28;20449;-81
2024/03/24 06:16:03;;;;;;;0.88;0.75;;;;;;;;;;5098598;28;20451;-80
2024/03/24 06:18:29;;;;;;;0.70;0.60;;;;;;;;;;5080552;28;20440;-80
2024/03/24 06:20:56;;;;;;;1.15;0.50;;;;;;;;;;5101074;28;20384;-80
2024/03/24 06:23:23;;;;;;;1.50;0.73;;;;;;;;;;5109911;28;20867;-80
2024/03/24 06:25:49;;;;;;;1.20;0.60;;;;;;;;;;5097735;28;20378;-81
2024/03/24 06:28:15;;;;;;;1.13;0.90;;;;;;;;;;5098767;28;20371;-80
2024/03/24 06:30:42;;;;;;;0.70;0.60;;;;;;;;;;5098588;28;20390;-81
2024/03/24 06:33:08;;;;;;;0.63;0.50;;;;;;;;;;5098078;28;20425;-82
2024/03/24 06:35:34;;;;;;;0.60;0.60;;;;;;;;;;5097871;28;20375;-81
2024/03/24 06:38:00;;;;;;;0.70;0.70;;;;;;;;;;5101181;28;20425;-82
2024/03/24 06:40:26;;;;;;;1.10;0.60;;;;;;;;;;5089058;28;20875;-81
2024/03/24 06:43:02;;;;;;;1.02;0.32;;;;;;;;;;5097694;28;20866;-81
2024/03/24 06:45:34;;;;;;;0.70;0.40;;;;;;;;;;5097850;28;20366;-81
2024/03/24 06:48:04;;;;;;;0.80;0.45;;;;;;;;;;5097813;28;20895;-81
2024/03/24 06:50:31;;;;;;;0.30;0.30;;;;;;;;;;5098111;28;20851;-81
2024/03/24 06:52:57;;;;;;;0.80;0.40;;;;;;;;;;5097976;28;20429;-81
2024/03/24 06:55:27;;;;;;;0.40;0.40;;;;;;;;;;5098236;28;20920;-81
2024/03/24 06:57:53;;;;;;;0.55;0.40;;;;;;;;;;5097808;28;20394;-81
2024/03/24 07:00:20;;;;;;;1.17;0.57;;;;;;;;;;5097481;28;20413;-81
2024/03/24 07:02:46;;;;;;;0.38;0.38;;;;;;;;;;5097890;28;20380;-81
2024/03/24 07:05:12;;;;;;;0.93;0.67;;;;;;;;;;5098023;28;20874;-81
2024/03/24 07:07:38;;;;;;;0.47;0.40;;;;;;;;;;5097495;28;20386;-81
2024/03/24 07:10:05;;;;;;;1.35;0.40;;;;;;;;;;5097602;28;20382;-81
2024/03/24 07:12:31;;;;;;;0.60;0.40;;;;;;;;;;5097729;28;20748;-81
2024/03/24 07:14:57;;;;;;;0.43;0.43;;;;;;;;;;5097704;28;20393;-81
2024/03/24 07:17:23;;;;;;;0.98;0.75;;;;;;;;;;5096918;28;20412;-81
2024/03/24 07:19:49;;;;;;;3.67;3.35;;;;;;;;;;5097320;28;20743;-82
2024/03/24 07:22:15;;;;;;;1.73;1.60;;;;;;;;;;5111603;28;20376;-81
2024/03/24 07:24:41;;;;;;;1.42;1.10;;;;;;;;;;5098538;28;20402;-82
2024/03/24 07:27:07;;;;;;;1.20;0.70;;;;;;;;;;5097795;28;20417;-81
2024/03/24 07:29:33;;;;;;;0.57;0.40;;;;;;;;;;5097715;28;20411;-82
2024/03/24 07:31:59;;;;;;;0.43;0.43;;;;;;;;;;5098155;28;20493;-83
2024/03/24 07:34:25;;;;;;;0.45;0.40;;;;;;;;;;5097833;28;20451;-83
2024/03/24 07:36:51;;;;;;;0.73;0.50;;;;;;;;;;5097467;28;20467;-81
2024/03/24 07:39:17;;;;;;;0.40;0.32;;;;;;;;;;5097947;28;20374;-82
2024/03/24 07:41:43;;;;;;;1.20;0.50;;;;;;;;;;5097343;28;20415;-82
2024/03/24 07:44:09;;;;;;;1.33;0.50;;;;;;;;;;5097478;28;20374;-82
2024/03/24 07:46:35;;;;;;;0.80;0.57;;;;;;;;;;5097333;28;20803;-82
2024/03/24 07:49:01;;;;;;;1.25;0.60;;;;;;;;;;5097067;28;20386;-81
2024/03/24 07:51:28;;;;;;;2.50;0.60;;;;;;;;;;5097409;28;20875;-81
2024/03/24 07:53:54;;;;;;;0.88;0.52;;;;;;;;;;5095739;28;20389;-81
2024/03/24 07:56:20;;;;;;;1.23;0.60;;;;;;;;;;5097523;28;20445;-81
2024/03/24 07:58:46;;;;;;;1.27;0.82;;;;;;;;;;5097555;28;20378;-81
2024/03/24 08:01:12;;;;;;;0.70;0.60;;;;;;;;;;5097227;28;20375;-81
2024/03/24 08:03:38;;;;;;;0.87;0.60;;;;;;;;;;5097683;28;20370;-81
2024/03/24 08:06:04;;;;;;;1.13;0.60;;;;;;;;;;5096761;28;20709;-81
2024/03/24 08:08:30;;;;;;;1.10;0.60;;;;;;;;;;5078902;28;20422;-81
2024/03/24 08:10:56;;;;;;;1.38;0.50;;;;;;;;;;5096427;28;20933;-81
2024/03/24 08:13:22;;;;;;;1.35;0.55;;;;;;;;;;5094539;28;20402;-80
2024/03/24 08:15:48;;;;;;;1.38;0.60;;;;;;;;;;5096175;28;20382;-81
2024/03/24 08:18:14;;;;;;;1.40;0.40;;;;;;;;;;5095902;28;20731;-81
2024/03/24 08:20:47;;;;;;;1.48;0.57;;;;;;;;;;5097620;28;20439;-82
2024/03/24 08:23:13;;;;;;;1.58;0.60;;;;;;;;;;5107945;28;20378;-82
2024/03/24 08:25:39;;;;;;;1.15;0.40;;;;;;;;;;5096412;28;20437;-82
2024/03/24 08:28:05;;;;;;;1.60;0.68;;;;;;;;;;5096252;28;20374;-81
2024/03/24 08:30:31;;;;;;;1.60;0.60;;;;;;;;;;5096230;28;20423;-81
2024/03/24 08:32:58;;;;;;;0.85;0.52;;;;;;;;;;5095714;28;20484;-81
2024/03/24 08:35:24;;;;;;;1.30;0.90;;;;;;;;;;5095569;28;20378;-81
2024/03/24 08:37:51;;;;;;;1.40;0.60;;;;;;;;;;5096171;28;20409;-81
2024/03/24 08:40:17;;;;;;;1.80;0.65;;;;;;;;;;5096104;28;20783;-81
2024/03/24 08:42:43;;;;;;;1.00;0.47;;;;;;;;;;5096444;28;20440;-81
2024/03/24 08:45:09;;;;;;;0.68;0.50;;;;;;;;;;5096603;28;20370;-81
2024/03/24 08:47:35;;;;;;;1.13;0.60;;;;;;;;;;5096080;28;20385;-81
2024/03/24 08:50:02;;;;;;;1.92;0.63;;;;;;;;;;5097464;28;20375;-80
2024/03/24 08:52:28;;;;;;;1.27;0.50;;;;;;;;;;5078047;28;20386;-81
2024/03/24 08:54:54;;;;;;;1.30;0.65;;;;;;;;;;5096026;28;20380;-82
2024/03/24 08:57:20;;;;;;;1.63;0.60;;;;;;;;;;5096531;28;20412;-82
2024/03/24 08:59:46;;;;;;;1.27;0.60;;;;;;;;;;5095797;28;20440;-81
2024/03/24 09:02:12;;;;;;;1.98;0.52;;;;;;;;;;5095570;28;20427;-81
2024/03/24 09:04:38;;;;;;;1.60;0.70;;;;;;;;;;5095276;28;20757;-81
2024/03/24 09:07:04;;;;;;;1.20;0.60;;;;;;;;;;5095504;28;20463;-82
2024/03/24 09:09:30;;;;;;;1.92;0.52;;;;;;;;;;5096011;28;20385;-81
2024/03/24 09:11:57;;;;;;;1.92;0.60;;;;;;;;;;5094887;28;20388;-81
2024/03/24 09:14:23;;;;;;;2.58;1.17;;;;;;;;;;5096152;28;20374;-81
2024/03/24 09:16:49;;;;;;;1.80;0.68;;;;;;;;;;5095033;28;20801;-81
2024/03/24 09:19:18;;;;;;;1.33;0.57;;;;;;;;;;5095810;28;20759;-81
2024/03/24 09:21:44;;;;;;;1.08;0.60;;;;;;;;;;5095206;28;20420;-81
2024/03/24 09:24:10;;;;;;;1.33;0.77;;;;;;;;;;5095430;28;20375;-81
2024/03/24 09:26:36;;;;;;;2.50;0.55;;;;;;;;;;5095196;28;20379;-81
2024/03/24 09:29:02;;;;;;;1.30;0.70;;;;;;;;;;5095248;28;20465;-81
2024/03/24 09:31:28;;;;;;;1.15;0.50;;;;;;;;;;5094574;28;20405;-81
2024/03/24 09:33:54;;;;;;;1.47;0.60;;;;;;;;;;5094611;28;20378;-81
2024/03/24 09:36:20;;;;;;;1.08;0.70;;;;;;;;;;5095347;28;20412;-82
2024/03/24 09:38:46;;;;;;;0.80;0.30;;;;;;;;;;5095539;28;20824;-81
2024/03/24 09:41:12;;;;;;;1.10;0.60;;;;;;;;;;5095001;28;20431;-81
2024/03/24 09:43:38;;;;;;;1.98;0.65;;;;;;;;;;5095443;28;20431;-81
2024/03/24 09:46:04;;;;;;;1.05;0.60;;;;;;;;;;5095044;28;20382;-82
2024/03/24 09:48:31;;;;;;;1.58;0.70;;;;;;;;;;5095488;28;20378;-81
2024/03/24 09:51:00;;;;;;;1.60;0.60;;;;;;;;;;5094607;28;20415;-81
2024/03/24 09:53:26;;;;;;;1.27;0.60;;;;;;;;;;5094510;28;20385;-81
2024/03/24 09:55:54;;;;;;;1.52;0.63;;;;;;;;;;5095823;28;20720;-81
2024/03/24 09:58:20;;;;;;;2.40;0.75;;;;;;;;;;5094922;28;20716;-81
2024/03/24 10:00:47;;;;;;;1.53;0.80;;;;;;;;;;5095343;28;20427;-81
2024/03/24 10:03:13;;;;;;;1.75;0.60;;;;;;;;;;5094485;28;20461;-81
2024/03/24 10:05:40;;;;;;;1.60;0.60;;;;;;;;;;5094692;28;20387;-81
2024/03/24 10:08:06;;;;;;;2.30;0.75;;;;;;;;;;5094791;28;20381;-81
2024/03/24 10:10:32;;;;;;;2.65;0.90;;;;;;;;;;5095365;28;20378;-81
2024/03/24 10:13:00;;;;;;;1.35;0.77;;;;;;;;;;5094991;28;20925;-81
2024/03/24 10:15:27;;;;;;;1.63;0.90;;;;;;;;;;5095273;28;20883;-81
2024/03/24 10:18:03;;;;;;;1.60;1.15;;;;;;;;;;5094137;28;20405;-81
2024/03/24 10:20:29;;;;;;;1.63;1.00;;;;;;;;;;5094693;28;20370;-81
2024/03/24 10:22:55;;;;;;;2.72;0.95;;;;;;;;;;5094326;28;20384;-81
2024/03/24 10:25:26;;;;;;;2.25;1.10;;;;;;;;;;5095494;28;20375;-81
2024/03/24 10:27:52;;;;;;;2.30;1.20;;;;;;;;;;5094311;28;20393;-81
2024/03/24 10:30:19;;;;;;;1.67;1.27;;;;;;;;;;5075814;28;20436;-82
2024/03/24 10:32:45;;;;;;;2.50;1.23;;;;;;;;;;5094769;28;20430;-81
2024/03/24 10:35:11;;;;;;;2.90;1.63;;;;;;;;;;5097933;28;20382;-81
2024/03/24 10:37:38;;;;;;;1.92;1.10;;;;;;;;;;5098177;28;20417;-81
2024/03/24 10:40:04;;;;;;;2.42;1.23;;;;;;;;;;5098663;28;20835;-81
2024/03/24 10:42:32;;;;;;;3.10;1.20;;;;;;;;;;5098440;28;20386;-81
2024/03/24 10:45:05;;;;;;;1.83;1.10;;;;;;;;;;5098383;28;20470;-81
2024/03/24 10:47:36;;;;;;;2.22;1.15;;;;;;;;;;5098385;28;20405;-81
2024/03/24 10:50:02;;;;;;;4.03;1.00;;;;;;;;;;5098555;28;20486;-81
2024/03/24 10:52:33;;;;;;;2.00;1.03;;;;;;;;;;5098460;28;20452;-81
2024/03/24 10:54:59;;;;;;;2.38;1.08;;;;;;;;;;5098386;28;20393;-81
2024/03/24 10:57:28;;;;;;;3.00;0.98;;;;;;;;;;5098100;28;20410;-81
2024/03/24 10:59:54;;;;;;;1.65;0.93;;;;;;;;;;5097703;28;20800;-81
2024/03/24 11:02:21;;;;;;;2.60;0.90;;;;;;;;;;5098082;28;20366;-81
2024/03/24 11:04:54;;;;;;;2.47;0.88;;;;;;;;;;5097631;28;20389;-81
2024/03/24 11:07:20;;;;;;;1.70;1.08;;;;;;;;;;5097864;28;20389;-81
2024/03/24 11:09:46;;;;;;;1.88;0.70;;;;;;;;;;5097681;28;21021;-81
2024/03/24 11:12:13;;;;;;;2.17;0.70;;;;;;;;;;5097444;28;20378;-81
2024/03/24 11:14:39;;;;;;;1.93;0.90;;;;;;;;;;5097255;28;20511;-81
2024/03/24 11:17:05;;;;;;;1.63;0.90;;;;;;;;;;5097165;28;20398;-81
2024/03/24 11:19:32;;;;;;;1.83;0.73;;;;;;;;;;5097042;28;20374;-81
2024/03/24 11:21:58;;;;;;;1.67;0.73;;;;;;;;;;5097024;28;20378;-81
2024/03/24 11:24:26;;;;;;;2.08;0.70;;;;;;;;;;5098469;28;20477;-81
2024/03/24 11:26:52;;;;;;;2.53;0.65;;;;;;;;;;5098354;28;20942;-80
2024/03/24 11:29:37;;;;;;;1.30;0.70;;;;;;;;;;5097744;28;20452;-79
2024/03/24 11:32:03;;;;;;;0.90;0.50;;;;;;;;;;5095632;28;20487;-80
2024/03/24 11:34:29;;;;;;;1.93;0.70;;;;;;;;;;5096588;28;20370;-79
2024/03/24 11:36:55;;;;;;;2.00;0.80;;;;;;;;;;5096254;28;20412;-79
2024/03/24 11:39:21;;;;;;;1.55;0.90;;;;;;;;;;5093527;28;20370;-77
2024/03/24 11:41:54;;;;;;;2.33;0.80;;;;;;;;;;5093823;28;20378;-79
2024/03/24 11:44:20;;;;;;;2.15;0.80;;;;;;;;;;5094608;28;20413;-77
2024/03/24 11:47:00;;;;;;;2.92;0.77;;;;;;;;;;5107603;28;20384;-77
2024/03/24 11:49:29;;;;;;;2.67;0.63;;;;;;;;;;5114262;28;20384;-77
2024/03/24 11:51:55;;;;;;;1.40;0.63;;;;;;;;;;5114614;28;20380;-77
2024/03/24 11:54:21;;;;;;;2.33;0.80;;;;;;;;;;5113690;28;20380;-77
2024/03/24 11:56:48;;;;;;;2.08;0.88;;;;;;;;;;5114167;28;20403;-77
2024/03/24 11:59:14;;;;;;;2.30;0.90;;;;;;;;;;5112699;28;20749;-77
2024/03/24 12:01:40;;;;;;;2.50;0.90;;;;;;;;;;5093037;28;20377;-77
2024/03/24 12:04:06;;;;;;;3.50;0.85;;;;;;;;;;5092828;28;20698;-77
2024/03/24 12:06:32;;;;;;;2.38;0.85;;;;;;;;;;5092989;28;20397;-77
2024/03/24 12:08:59;;;;;;;3.88;0.90;;;;;;;;;;5093002;28;20840;-77
2024/03/24 12:11:25;;;;;;;2.53;1.02;;;;;;;;;;5093108;28;21235;-77
2024/03/24 12:13:51;;;;;;;1.92;0.80;;;;;;;;;;5093041;28;20378;-79
2024/03/24 12:16:18;;;;;;;1.42;0.80;;;;;;;;;;5093670;28;20405;-79
2024/03/24 12:18:44;;;;;;;2.72;1.00;;;;;;;;;;5093614;28;20406;-78
2024/03/24 12:21:10;;;;;;;2.08;0.75;;;;;;;;;;5093008;28;20481;-78
2024/03/24 12:23:37;;;;;;;1.27;0.80;;;;;;;;;;5093276;28;20399;-78
2024/03/24 12:26:04;;;;;;;2.10;1.00;;;;;;;;;;5093220;28;20460;-78
2024/03/24 12:28:30;;;;;;;2.67;0.98;;;;;;;;;;5092584;28;20445;-78
2024/03/24 12:30:56;;;;;;;2.20;0.80;;;;;;;;;;5092549;28;20869;-77
2024/03/24 12:33:23;;;;;;;2.72;1.20;;;;;;;;;;5092593;28;20878;-78
2024/03/24 12:35:49;;;;;;;1.90;0.85;;;;;;;;;;5092256;28;20378;-78
2024/03/24 12:38:16;;;;;;;2.67;1.27;;;;;;;;;;5092428;28;20839;-78
2024/03/24 12:40:57;;;;;;;2.03;0.82;;;;;;;;;;5093556;28;20472;-79
2024/03/24 12:43:24;;;;;;;2.38;0.80;;;;;;;;;;5094090;28;20850;-79
2024/03/24 12:45:56;;;;;;;2.08;0.82;;;;;;;;;;5094616;28;20385;-79
2024/03/24 12:48:26;;;;;;;4.93;1.00;;;;;;;;;;5094884;28;20366;-78
2024/03/24 12:50:52;;;;;;;3.15;0.90;;;;;;;;;;5095077;28;20462;-78
2024/03/24 12:53:35;;;;;;;1.50;0.70;;;;;;;;;;5094325;28;20771;-78
2024/03/24 12:56:01;;;;;;;1.75;0.77;;;;;;;;;;5094032;28;20739;-78
2024/03/24 12:58:31;;;;;;;1.75;0.60;;;;;;;;;;5093399;28;20397;-77
2024/03/24 13:00:59;;;;;;;1.42;0.60;;;;;;;;;;5093271;28;20389;-79
2024/03/24 13:03:25;;;;;;;2.13;0.90;;;;;;;;;;5093808;28;20465;-78
2024/03/24 13:05:52;;;;;;;1.90;1.00;;;;;;;;;;5094458;28;20374;-78
2024/03/24 13:08:18;;;;;;;1.47;1.00;;;;;;;;;;5074752;28;20382;-78
2024/03/24 13:10:44;;;;;;;1.52;0.73;;;;;;;;;;5093171;28;20378;-78
2024/03/24 13:13:10;;;;;;;1.40;0.70;;;;;;;;;;5093902;28;20443;-78
2024/03/24 13:15:36;;;;;;;2.45;0.70;;;;;;;;;;5094144;28;20490;-78
2024/03/24 13:18:07;;;;;;;1.47;0.80;;;;;;;;;;5094300;28;20943;-78
2024/03/24 13:20:38;;;;;;;1.30;0.70;;;;;;;;;;5076016;28;20388;-78
2024/03/24 13:23:05;;;;;;;1.42;0.65;;;;;;;;;;5094237;28;20378;-78
2024/03/24 13:25:31;;;;;;;1.60;0.70;;;;;;;;;;5093630;28;20407;-78
2024/03/24 13:28:00;;;;;;;2.00;0.80;;;;;;;;;;5094830;28;20390;-78
2024/03/24 13:30:26;;;;;;;1.60;0.95;;;;;;;;;;5093829;28;20385;-78
2024/03/24 13:32:52;;;;;;;3.23;0.70;;;;;;;;;;5093620;28;20478;-78
2024/03/24 13:35:19;;;;;;;2.15;0.90;;;;;;;;;;5094005;28;20369;-79
2024/03/24 13:37:58;;;;;;;1.90;0.80;;;;;;;;;;5093743;28;20397;-78
2024/03/24 13:40:37;;;;;;;1.80;0.70;;;;;;;;;;5094174;28;20823;-78
2024/03/24 13:43:18;;;;;;;1.77;0.60;;;;;;;;;;5094420;28;20370;-78
2024/03/24 13:45:59;;;;;;;2.28;0.65;;;;;;;;;;5094098;28;20378;-78
2024/03/24 13:48:27;;;;;;;1.70;0.70;;;;;;;;;;5093656;28;20506;-78
2024/03/24 13:50:53;;;;;;;1.33;0.57;;;;;;;;;;5094096;28;20387;-78
2024/03/24 13:53:20;;;;;;;1.98;0.68;;;;;;;;;;5094042;28;20397;-78
2024/03/24 13:55:46;;;;;;;1.85;0.55;;;;;;;;;;5094203;28;20381;-78
2024/03/24 13:58:12;;;;;;;0.95;0.50;;;;;;;;;;5093500;28;20501;-78
2024/03/24 14:00:38;;;;;;;1.25;0.50;;;;;;;;;;5093602;28;20477;-78
2024/03/24 14:03:06;;;;;;;1.23;0.68;;;;;;;;;;5093704;28;20381;-78
2024/03/24 14:05:33;;;;;;;0.80;0.50;;;;;;;;;;5093030;28;20407;-78
2024/03/24 14:07:59;;;;;;;1.90;0.60;;;;;;;;;;5093944;28;20711;-78
2024/03/24 14:10:25;;;;;;;1.50;0.75;;;;;;;;;;5097745;28;20390;-78
2024/03/24 14:12:51;;;;;;;1.33;0.80;;;;;;;;;;5097828;28;20442;-78
2024/03/24 14:15:21;;;;;;;3.05;0.50;;;;;;;;;;5098520;28;20473;-78
2024/03/24 14:17:50;;;;;;;1.10;0.50;;;;;;;;;;5117201;28;20400;-79
2024/03/24 14:20:22;;;;;;;1.57;0.50;;;;;;;;;;5117959;28;20889;-78
2024/03/24 14:22:54;;;;;;;2.03;0.75;;;;;;;;;;5117887;28;20916;-78
2024/03/24 14:25:21;;;;;;;1.20;0.60;;;;;;;;;;5117203;28;20452;-78
2024/03/24 14:27:48;;;;;;;2.65;0.60;;;;;;;;;;5117492;28;20857;-78
2024/03/24 14:30:13;;;;;;;1.77;0.50;;;;;;;;;;5117848;28;20380;-78
2024/03/24 14:32:40;;;;;;;1.67;0.50;;;;;;;;;;5117313;28;20403;-78
2024/03/24 14:35:06;;;;;;;1.38;0.70;;;;;;;;;;5117630;28;20377;-78
2024/03/24 14:37:47;;;;;;;2.10;0.52;;;;;;;;;;5117364;28;20487;-78
2024/03/24 14:40:19;;;;;;;0.63;0.43;;;;;;;;;;5117869;28;21049;-78